createdAt,value
2023-03-06T00:00:42.567Z,23.67
2023-03-06T00:03:09.458Z,26.03
2023-03-06T00:05:36.329Z,21.07
2023-03-06T00:08:03.132Z,24.00
2023-03-06T00:10:31.081Z,20.53
2023-03-06T00:13:00.932Z,24.60
2023-03-06T00:15:28.588Z,24.47
2023-03-06T00:17:55.964Z,28.10
2023-03-06T00:20:23.822Z,26.23
2023-03-06T00:22:51.405Z,24.60
2023-03-06T00:25:20.954Z,22.83
2023-03-06T00:27:48.239Z,22.07
2023-03-06T00:30:18.246Z,22.63
2023-03-06T00:32:45.326Z,21.43
2023-03-06T00:35:13.160Z,23.50
2023-03-06T00:37:40.974Z,26.13
2023-03-06T00:40:10.814Z,24.73
2023-03-06T00:42:37.553Z,25.70
2023-03-06T00:45:04.707Z,25.20
2023-03-06T00:47:31.998Z,24.90
2023-03-06T00:49:58.785Z,25.33
2023-03-06T00:52:25.583Z,21.20
2023-03-06T00:54:52.344Z,25.53
2023-03-06T00:57:19.099Z,24.20
2023-03-06T00:59:46.204Z,23.03
2023-03-06T01:02:13.149Z,25.50
2023-03-06T01:04:39.916Z,27.17
2023-03-06T01:07:06.781Z,20.00
2023-03-06T01:09:33.530Z,24.53
2023-03-06T01:12:00.293Z,25.63
2023-03-06T01:14:27.320Z,28.70
2023-03-06T01:16:54.001Z,25.60
2023-03-06T01:19:20.733Z,26.43
2023-03-06T01:21:47.552Z,24.60
2023-03-06T01:24:14.276Z,26.60
2023-03-06T01:26:40.978Z,25.03
2023-03-06T01:29:07.764Z,21.90
2023-03-06T01:31:34.770Z,24.20
2023-03-06T01:34:01.937Z,23.17
2023-03-06T01:36:28.709Z,22.17
2023-03-06T01:38:55.481Z,22.50
2023-03-06T01:41:22.219Z,28.27
2023-03-06T01:43:49.632Z,25.23
2023-03-06T01:46:28.222Z,27.50
2023-03-06T01:49:15.401Z,25.23
2023-03-06T01:51:55.541Z,24.40
2023-03-06T01:54:35.689Z,23.60
2023-03-06T01:57:15.334Z,27.30
2023-03-06T01:59:44.100Z,24.97
2023-03-06T02:02:12.660Z,30.13
2023-03-06T02:04:41.205Z,25.03
2023-03-06T02:07:09.187Z,25.73
2023-03-06T02:09:38.164Z,28.83
2023-03-06T02:12:19.034Z,24.00
2023-03-06T02:14:47.003Z,27.53
2023-03-06T02:17:15.904Z,23.57
2023-03-06T02:19:50.198Z,24.03
2023-03-06T02:22:17.136Z,26.33
2023-03-06T02:24:48.419Z,25.37
2023-03-06T02:27:15.860Z,21.80
2023-03-06T02:29:43.633Z,25.67
2023-03-06T02:32:10.592Z,22.67
2023-03-06T02:34:37.386Z,27.07
2023-03-06T02:37:09.504Z,23.40
2023-03-06T02:39:41.507Z,21.63
2023-03-06T02:42:08.233Z,22.77
2023-03-06T02:44:35.908Z,26.70
2023-03-06T02:47:02.676Z,23.03
2023-03-06T02:49:29.405Z,21.87
2023-03-06T02:51:56.146Z,28.07
2023-03-06T02:54:22.863Z,24.07
2023-03-06T02:56:49.524Z,24.07
2023-03-06T02:59:16.285Z,19.40
2023-03-06T03:01:43.076Z,23.47
2023-03-06T03:04:10.124Z,24.10
2023-03-06T03:06:36.796Z,24.67
2023-03-06T03:09:03.746Z,28.37
2023-03-06T03:11:30.456Z,23.03
2023-03-06T03:13:57.214Z,26.00
2023-03-06T03:16:24.018Z,23.13
2023-03-06T03:18:53.520Z,28.90
2023-03-06T03:21:20.433Z,25.13
2023-03-06T03:23:47.124Z,27.40
2023-03-06T03:26:20.001Z,24.57
2023-03-06T03:28:46.888Z,30.03
2023-03-06T03:31:14.128Z,25.27
2023-03-06T03:33:41.195Z,24.20
2023-03-06T03:36:08.388Z,26.00
2023-03-06T03:38:35.832Z,24.20
2023-03-06T03:41:03.496Z,23.87
2023-03-06T03:43:30.385Z,26.67
2023-03-06T03:45:57.106Z,25.43
2023-03-06T03:48:23.802Z,26.90
2023-03-06T03:50:50.634Z,30.47
2023-03-06T03:53:17.337Z,25.07
2023-03-06T03:55:46.050Z,23.13
2023-03-06T03:58:12.760Z,25.73
2023-03-06T04:00:39.590Z,27.53
2023-03-06T04:03:06.380Z,20.70
2023-03-06T04:05:33.896Z,24.97
2023-03-06T04:08:03.073Z,26.13
2023-03-06T04:10:30.107Z,27.43
2023-03-06T04:12:57.083Z,24.17
2023-03-06T04:15:23.906Z,26.63
2023-03-06T04:17:50.746Z,26.70
2023-03-06T04:20:17.887Z,27.70
2023-03-06T04:22:44.648Z,22.30
2023-03-06T04:25:11.471Z,30.63
2023-03-06T04:27:38.266Z,24.80
2023-03-06T04:30:06.713Z,25.40
2023-03-06T04:32:33.896Z,26.47
2023-03-06T04:35:00.657Z,27.43
2023-03-06T04:37:27.602Z,26.23
2023-03-06T04:39:54.507Z,29.00
2023-03-06T04:42:21.377Z,30.10
2023-03-06T04:44:48.064Z,26.70
2023-03-06T04:47:14.816Z,29.67
2023-03-06T04:49:41.581Z,28.83
2023-03-06T04:52:08.647Z,30.47
2023-03-06T04:54:35.389Z,27.63
2023-03-06T04:57:02.293Z,27.00
2023-03-06T04:59:29.120Z,25.73
2023-03-06T05:01:55.960Z,24.10
2023-03-06T05:04:22.772Z,26.53
2023-03-06T05:06:49.535Z,30.70
2023-03-06T05:09:16.799Z,26.50
2023-03-06T05:11:43.578Z,26.67
2023-03-06T05:14:10.323Z,25.93
2023-03-06T05:16:37.087Z,27.27
2023-03-06T05:19:03.930Z,26.87
2023-03-06T05:21:30.666Z,28.23
2023-03-06T05:23:57.565Z,29.20
2023-03-06T05:26:24.350Z,27.73
2023-03-06T05:28:51.089Z,28.33
2023-03-06T05:31:17.859Z,27.13
2023-03-06T05:33:44.593Z,28.50
2023-03-06T05:36:11.369Z,27.93
2023-03-06T05:38:38.209Z,27.83
2023-03-06T05:41:05.377Z,28.03
2023-03-06T05:43:32.142Z,30.53
2023-03-06T05:46:06.261Z,33.37
2023-03-06T05:48:34.508Z,33.97
2023-03-06T05:51:02.289Z,34.80
2023-03-06T05:53:29.552Z,34.83
2023-03-06T05:56:01.895Z,40.80
2023-03-06T05:58:29.983Z,33.87
2023-03-06T06:00:57.305Z,35.90
2023-03-06T06:03:24.334Z,30.93
2023-03-06T06:05:51.797Z,30.77
2023-03-06T06:08:18.844Z,30.80
2023-03-06T06:10:45.571Z,30.00
2023-03-06T06:13:12.265Z,36.33
2023-03-06T06:15:39.308Z,32.60
2023-03-06T06:18:06.044Z,31.30
2023-03-06T06:20:32.817Z,34.60
2023-03-06T06:22:59.611Z,29.10
2023-03-06T06:25:26.348Z,27.43
2023-03-06T06:27:56.226Z,27.77
2023-03-06T06:30:23.433Z,31.13
2023-03-06T06:32:50.374Z,28.70
2023-03-06T06:35:17.335Z,27.87
2023-03-06T06:37:44.083Z,29.03
2023-03-06T06:40:11.430Z,32.87
2023-03-06T06:42:40.107Z,25.30
2023-03-06T06:45:11.181Z,28.47
2023-03-06T06:47:41.252Z,30.40
2023-03-06T06:50:13.944Z,32.57
2023-03-06T06:52:41.263Z,29.70
2023-03-06T06:55:08.566Z,33.93
2023-03-06T06:57:35.276Z,26.83
2023-03-06T07:00:02.166Z,27.83
2023-03-06T07:02:28.904Z,31.27
2023-03-06T07:05:04.133Z,26.00
2023-03-06T07:07:36.599Z,32.37
2023-03-06T07:10:07.118Z,28.37
2023-03-06T07:12:35.040Z,28.53
2023-03-06T07:15:02.053Z,31.53
2023-03-06T07:17:29.179Z,32.23
2023-03-06T07:19:55.871Z,30.90
2023-03-06T07:22:23.281Z,29.67
2023-03-06T07:24:50.054Z,26.67
2023-03-06T07:27:16.791Z,34.73
2023-03-06T07:29:44.246Z,29.87
2023-03-06T07:32:11.949Z,27.63
2023-03-06T07:34:38.745Z,33.17
2023-03-06T07:37:05.577Z,30.93
2023-03-06T07:39:32.412Z,30.77
2023-03-06T07:41:59.360Z,36.07
2023-03-06T07:44:26.614Z,29.97
2023-03-06T07:46:53.689Z,32.10
2023-03-06T07:49:23.460Z,30.30
2023-03-06T07:51:50.234Z,29.77
2023-03-06T07:54:16.968Z,28.37
2023-03-06T07:56:43.692Z,34.53
2023-03-06T07:59:11.894Z,28.97
2023-03-06T08:01:40.180Z,30.20
2023-03-06T08:04:07.181Z,33.53
2023-03-06T08:06:34.081Z,30.33
2023-03-06T08:09:00.901Z,33.73
2023-03-06T08:11:30.328Z,27.00
2023-03-06T08:13:58.389Z,30.90
2023-03-06T08:16:28.525Z,31.77
2023-03-06T08:18:55.840Z,37.87
2023-03-06T08:21:25.778Z,30.07
2023-03-06T08:23:52.740Z,34.80
2023-03-06T08:26:22.057Z,30.00
2023-03-06T08:28:50.784Z,34.73
2023-03-06T08:31:35.741Z,30.53
2023-03-06T08:34:05.484Z,31.50
2023-03-06T08:36:32.308Z,30.40
2023-03-06T08:38:59.298Z,34.47
2023-03-06T08:41:27.490Z,28.60
2023-03-06T08:43:54.216Z,31.07
2023-03-06T08:46:23.446Z,32.13
2023-03-06T08:48:50.296Z,31.77
2023-03-06T08:51:18.490Z,32.97
2023-03-06T08:53:46.044Z,32.57
2023-03-06T08:56:27.171Z,30.20
2023-03-06T08:58:55.609Z,33.17
2023-03-06T09:01:25.579Z,29.37
2023-03-06T09:03:55.060Z,32.50
2023-03-06T09:06:22.128Z,32.80
2023-03-06T09:08:51.609Z,34.87
2023-03-06T09:11:19.607Z,33.17
2023-03-06T09:13:46.508Z,30.73
2023-03-06T09:16:13.385Z,35.50
2023-03-06T09:18:40.417Z,30.63
2023-03-06T09:21:07.918Z,29.50
2023-03-06T09:23:35.360Z,32.03
2023-03-06T09:26:02.724Z,32.27
2023-03-06T09:28:29.630Z,35.53
2023-03-06T09:30:56.643Z,31.03
2023-03-06T09:33:23.771Z,31.20
2023-03-06T09:35:56.173Z,29.53
2023-03-06T09:38:26.131Z,33.97
2023-03-06T09:41:00.250Z,32.93
2023-03-06T09:43:40.198Z,30.83
2023-03-06T09:46:40.312Z,28.57
2023-03-06T09:49:38.378Z,28.50
2023-03-06T09:52:11.347Z,25.33
2023-03-06T09:54:40.956Z,26.73
2023-03-06T09:57:20.621Z,27.03
2023-03-06T09:59:52.094Z,30.77
2023-03-06T10:02:30.770Z,25.73
2023-03-06T10:05:04.079Z,27.17
2023-03-06T10:07:45.477Z,29.63
2023-03-06T10:10:31.178Z,28.97
2023-03-06T10:13:02.094Z,24.80
2023-03-06T10:15:38.562Z,24.97
2023-03-06T10:18:05.591Z,28.43
2023-03-06T10:20:46.198Z,28.37
2023-03-06T10:23:46.762Z,25.13
2023-03-06T10:26:20.527Z,29.47
2023-03-06T10:28:50.199Z,27.90
2023-03-06T10:31:24.686Z,30.30
2023-03-06T10:34:19.249Z,26.03
2023-03-06T10:36:45.939Z,25.70
2023-03-06T10:39:20.668Z,24.80
2023-03-06T10:41:48.588Z,25.90
2023-03-06T10:44:15.253Z,22.83
2023-03-06T10:46:45.978Z,27.80
2023-03-06T10:49:37.520Z,22.93
2023-03-06T10:52:20.721Z,29.47
2023-03-06T10:54:50.866Z,23.20
2023-03-06T10:57:24.581Z,22.97
2023-03-06T11:00:08.236Z,22.77
2023-03-06T11:02:40.951Z,21.57
2023-03-06T11:05:19.818Z,25.07
2023-03-06T11:07:59.459Z,22.73
2023-03-06T11:10:26.625Z,22.63
2023-03-06T11:13:21.413Z,22.20
2023-03-06T11:16:17.762Z,23.40
2023-03-06T11:19:07.032Z,22.37
2023-03-06T11:21:35.715Z,23.33
2023-03-06T11:24:08.725Z,21.73
2023-03-06T11:26:58.324Z,20.57
2023-03-06T11:29:38.591Z,22.83
2023-03-06T11:32:30.185Z,23.27
2023-03-06T11:35:18.734Z,20.77
2023-03-06T11:37:59.709Z,28.80
2023-03-06T11:40:46.046Z,21.27
2023-03-06T11:43:40.835Z,26.10
2023-03-06T11:46:23.459Z,26.93
2023-03-06T11:48:57.769Z,22.97
2023-03-06T11:51:33.141Z,23.87
2023-03-06T11:54:00.970Z,25.53
2023-03-06T11:56:40.607Z,21.93
2023-03-06T11:59:32.279Z,23.67
2023-03-06T12:02:31.540Z,23.77
2023-03-06T12:05:35.793Z,26.30
2023-03-06T12:08:12.737Z,21.87
2023-03-06T12:10:51.576Z,25.50
2023-03-06T12:13:46.982Z,20.50
2023-03-06T12:16:41.896Z,21.70
2023-03-06T12:19:29.732Z,21.37
2023-03-06T12:22:15.971Z,22.73
2023-03-06T12:25:12.386Z,23.70
2023-03-06T12:27:53.675Z,25.97
2023-03-06T12:30:40.197Z,24.53
2023-03-06T12:33:34.932Z,23.00
2023-03-06T12:36:29.015Z,21.17
2023-03-06T12:39:24.116Z,21.57
2023-03-06T12:42:11.314Z,22.80
2023-03-06T12:44:58.107Z,22.23
2023-03-06T12:47:28.154Z,21.57
2023-03-06T12:50:19.235Z,19.43
2023-03-06T12:52:47.542Z,19.80
2023-03-06T12:55:19.829Z,19.27
2023-03-06T12:57:49.658Z,16.40
2023-03-06T13:00:34.662Z,16.10
2023-03-06T13:03:10.422Z,19.00
2023-03-06T13:06:02.022Z,19.37
2023-03-06T13:08:47.700Z,14.67
2023-03-06T13:11:18.606Z,16.43
2023-03-06T13:13:47.630Z,17.50
2023-03-06T13:16:29.435Z,15.03
2023-03-06T13:19:20.005Z,13.43
2023-03-06T13:21:55.705Z,13.67
2023-03-06T13:24:25.035Z,14.97
2023-03-06T13:26:54.643Z,13.13
2023-03-06T13:29:48.144Z,16.03
2023-03-06T13:32:19.142Z,11.50
2023-03-06T13:34:48.532Z,12.60
2023-03-06T13:37:23.226Z,13.83
2023-03-06T13:39:55.598Z,12.10
2023-03-06T13:42:44.685Z,12.97
2023-03-06T13:45:16.966Z,14.47
2023-03-06T13:50:43.540Z,16.27
2023-03-06T13:53:35.150Z,15.43
2023-03-06T13:56:16.908Z,16.63
2023-03-06T13:58:58.693Z,16.80
2023-03-06T14:01:35.984Z,15.23
2023-03-06T14:04:35.543Z,14.10
2023-03-06T14:07:07.179Z,14.63
2023-03-06T14:09:45.579Z,14.83
2023-03-06T14:12:34.699Z,16.27
2023-03-06T14:15:20.077Z,16.40
2023-03-06T14:17:56.427Z,16.17
2023-03-06T14:20:32.141Z,17.90
2023-03-06T14:23:16.429Z,17.10
2023-03-06T14:25:45.951Z,12.57
2023-03-06T14:28:24.416Z,13.40
2023-03-06T14:30:53.113Z,12.03
2023-03-06T14:34:10.808Z,15.27
2023-03-06T14:36:46.540Z,17.93
2023-03-06T14:39:35.586Z,13.80
2023-03-06T14:42:07.259Z,15.50
2023-03-06T14:44:34.082Z,13.83
2023-03-06T14:47:29.149Z,15.40
2023-03-06T14:50:21.925Z,14.83
2023-03-06T14:53:00.494Z,14.87
2023-03-06T14:55:29.889Z,16.00
2023-03-06T14:58:02.654Z,16.83
2023-03-06T15:00:43.465Z,14.27
2023-03-06T15:03:18.194Z,14.00
2023-03-06T15:05:47.517Z,13.50
2023-03-06T15:08:20.389Z,12.10
2023-03-06T15:11:02.277Z,11.37
2023-03-06T15:13:31.428Z,13.10
2023-03-06T15:16:00.666Z,13.93
2023-03-06T15:18:39.709Z,12.77
2023-03-06T15:21:13.327Z,16.47
2023-03-06T15:23:46.194Z,15.27
2023-03-06T15:26:31.738Z,13.10
2023-03-06T15:29:11.044Z,11.57
2023-03-06T15:31:39.867Z,13.03
2023-03-06T15:34:06.698Z,12.50
2023-03-06T15:36:41.953Z,10.83
2023-03-06T15:39:30.687Z,14.60
2023-03-06T15:42:18.339Z,11.83
2023-03-06T15:44:54.005Z,10.93
2023-03-06T15:47:21.825Z,9.73
2023-03-06T15:49:52.077Z,12.77
2023-03-06T15:52:22.683Z,11.67
2023-03-06T15:54:49.628Z,12.37
2023-03-06T15:57:29.301Z,12.17
2023-03-06T15:59:56.532Z,10.90
2023-03-06T16:02:24.391Z,10.03
2023-03-06T16:04:52.339Z,13.57
2023-03-06T16:07:19.246Z,10.80
2023-03-06T16:09:46.006Z,10.53
2023-03-06T16:12:20.297Z,11.23
2023-03-06T16:14:48.553Z,11.40
2023-03-06T16:17:15.988Z,10.73
2023-03-06T16:19:44.375Z,12.87
2023-03-06T16:22:11.417Z,11.80
2023-03-06T16:24:38.177Z,17.37
2023-03-06T16:27:05.258Z,11.90
2023-03-06T16:29:32.174Z,10.63
2023-03-06T16:32:01.551Z,19.00
2023-03-06T16:34:28.365Z,11.57
2023-03-06T16:36:55.154Z,9.50
2023-03-06T16:39:26.396Z,9.20
2023-03-06T16:41:53.426Z,10.47
2023-03-06T16:44:21.064Z,15.30
2023-03-06T16:46:49.810Z,12.73
2023-03-06T16:49:22.807Z,12.27
2023-03-06T16:51:50.294Z,11.90
2023-03-06T16:54:17.148Z,14.60
2023-03-06T16:56:44.759Z,11.23
2023-03-06T16:59:12.468Z,13.17
2023-03-06T17:01:43.022Z,11.50
2023-03-06T17:04:10.169Z,12.00
2023-03-06T17:06:37.289Z,12.50
2023-03-06T17:09:04.580Z,12.83
2023-03-06T17:11:31.629Z,13.37
2023-03-06T17:13:58.513Z,13.23
2023-03-06T17:16:25.419Z,16.87
2023-03-06T17:18:52.417Z,15.37
2023-03-06T17:21:19.234Z,12.87
2023-03-06T17:23:46.254Z,12.67
2023-03-06T17:26:15.564Z,12.83
2023-03-06T17:28:43.068Z,16.17
2023-03-06T17:31:22.506Z,17.73
2023-03-06T17:33:51.353Z,16.53
2023-03-06T17:36:19.299Z,15.93
2023-03-06T17:38:46.307Z,18.40
2023-03-06T17:41:13.962Z,17.53
2023-03-06T17:43:41.333Z,15.87
2023-03-06T17:46:13.523Z,17.27
2023-03-06T17:48:40.817Z,15.90
2023-03-06T17:51:09.333Z,16.63
2023-03-06T17:53:36.313Z,30.37
2023-03-06T17:56:05.311Z,15.23
2023-03-06T17:58:32.339Z,15.90
2023-03-06T18:00:59.625Z,15.67
2023-03-06T18:03:27.028Z,14.43
2023-03-06T18:06:05.000Z,14.60
2023-03-06T18:08:32.238Z,20.50
2023-03-06T18:11:04.184Z,30.17
2023-03-06T18:13:35.719Z,18.73
2023-03-06T18:16:02.838Z,19.70
2023-03-06T18:18:30.100Z,33.93
2023-03-06T18:20:56.888Z,20.10
2023-03-06T18:23:23.729Z,25.70
2023-03-06T18:25:50.653Z,18.70
2023-03-06T18:28:17.470Z,17.83
2023-03-06T18:30:44.171Z,16.10
2023-03-06T18:33:10.978Z,18.53
2023-03-06T18:35:38.226Z,36.93
2023-03-06T18:38:05.023Z,16.00
2023-03-06T18:40:31.820Z,19.63
2023-03-06T18:42:58.607Z,15.37
2023-03-06T18:45:25.401Z,16.73
2023-03-06T18:47:52.267Z,18.60
2023-03-06T18:50:19.063Z,19.10
2023-03-06T18:52:46.096Z,18.60
2023-03-06T18:55:12.974Z,14.53
2023-03-06T18:57:39.818Z,16.70
2023-03-06T19:00:07.766Z,18.90
2023-03-06T19:02:34.560Z,17.73
2023-03-06T19:05:01.284Z,19.90
2023-03-06T19:07:28.018Z,16.80
2023-03-06T19:09:54.887Z,22.83
2023-03-06T19:12:21.729Z,19.30
2023-03-06T19:14:48.583Z,19.13
2023-03-06T19:17:15.370Z,35.73
2023-03-06T19:19:42.124Z,17.07
2023-03-06T19:22:08.934Z,27.67
2023-03-06T19:24:35.731Z,25.00
2023-03-06T19:27:02.466Z,17.90
2023-03-06T19:29:29.338Z,20.80
2023-03-06T19:31:57.297Z,18.07
2023-03-06T19:34:24.171Z,17.97
2023-03-06T19:36:50.963Z,21.30
2023-03-06T19:39:20.464Z,23.60
2023-03-06T19:41:47.858Z,25.77
2023-03-06T19:44:16.276Z,20.87
2023-03-06T19:46:43.539Z,22.43
2023-03-06T19:49:16.781Z,26.60
2023-03-06T19:51:44.004Z,20.97
2023-03-06T19:54:12.406Z,45.40
2023-03-06T19:56:39.906Z,75.50
2023-03-06T19:59:06.738Z,27.07
2023-03-06T20:01:34.376Z,30.57
2023-03-06T20:04:01.853Z,69.50
2023-03-06T20:06:33.388Z,63.60
2023-03-06T20:09:02.327Z,20.00
2023-03-06T20:11:30.012Z,26.10
2023-03-06T20:14:02.856Z,32.30
2023-03-06T20:16:30.923Z,25.67
2023-03-06T20:19:00.162Z,21.73
2023-03-06T20:21:28.380Z,25.00
2023-03-06T20:23:57.879Z,22.10
2023-03-06T20:26:26.322Z,20.67
2023-03-06T20:28:53.101Z,19.77
2023-03-06T20:31:22.162Z,19.43
2023-03-06T20:33:51.089Z,22.30
2023-03-06T20:36:20.758Z,18.30
2023-03-06T20:38:47.585Z,22.07
2023-03-06T20:41:19.774Z,20.37
2023-03-06T20:43:46.612Z,21.77
2023-03-06T20:46:14.699Z,25.60
2023-03-06T20:48:42.394Z,19.97
2023-03-06T20:51:22.699Z,22.13
2023-03-06T20:53:50.795Z,20.83
2023-03-06T20:56:20.425Z,18.27
2023-03-06T20:58:47.419Z,22.30
2023-03-06T21:01:22.422Z,18.00
2023-03-06T21:03:51.191Z,22.73
2023-03-06T21:06:18.806Z,20.50
2023-03-06T21:08:46.085Z,20.90
2023-03-06T21:11:13.161Z,17.50
2023-03-06T21:13:40.353Z,18.10
2023-03-06T21:16:09.791Z,17.20
2023-03-06T21:18:36.983Z,19.47
2023-03-06T21:21:12.278Z,20.03
2023-03-06T21:23:39.708Z,22.27
2023-03-06T21:26:06.893Z,17.60
2023-03-06T21:28:34.316Z,18.63
2023-03-06T21:31:01.796Z,19.83
2023-03-06T21:33:29.129Z,19.30
2023-03-06T21:35:55.944Z,17.63
2023-03-06T21:38:22.731Z,19.90
2023-03-06T21:40:49.523Z,17.83
2023-03-06T21:43:17.446Z,18.57
2023-03-06T21:45:46.098Z,17.20
2023-03-06T21:48:14.462Z,16.37
2023-03-06T21:50:41.793Z,14.87
2023-03-06T21:53:09.264Z,18.97
2023-03-06T21:55:40.489Z,15.60
2023-03-06T21:58:07.415Z,16.77
2023-03-06T22:00:37.407Z,17.47
2023-03-06T22:03:04.796Z,17.83
2023-03-06T22:05:34.565Z,21.03
2023-03-06T22:08:01.374Z,19.93
2023-03-06T22:10:28.212Z,21.10
2023-03-06T22:12:54.982Z,20.60
2023-03-06T22:15:21.902Z,19.67
2023-03-06T22:17:48.851Z,17.90
2023-03-06T22:20:15.927Z,21.27
2023-03-06T22:22:43.644Z,20.10
2023-03-06T22:25:11.806Z,20.60
2023-03-06T22:27:38.802Z,20.23
2023-03-06T22:30:06.077Z,17.43
2023-03-06T22:32:33.087Z,17.30
2023-03-06T22:34:59.822Z,18.23
2023-03-06T22:37:26.579Z,15.90
2023-03-06T22:39:53.286Z,43.47
2023-03-06T22:42:20.120Z,100.97
2023-03-06T22:44:46.888Z,74.23
2023-03-06T22:47:13.673Z,18.50
2023-03-06T22:49:40.420Z,19.03
2023-03-06T22:52:07.701Z,18.63
2023-03-06T22:54:34.526Z,16.13
2023-03-06T22:57:01.277Z,18.63
2023-03-06T22:59:28.063Z,17.03
2023-03-06T23:01:57.678Z,18.10
2023-03-06T23:04:24.561Z,17.93
2023-03-06T23:06:53.993Z,21.57
2023-03-06T23:09:22.529Z,19.20
2023-03-06T23:11:50.048Z,19.07
2023-03-06T23:14:18.249Z,18.70
2023-03-06T23:16:45.326Z,29.77
2023-03-06T23:19:12.290Z,16.30
2023-03-06T23:21:39.233Z,20.83
2023-03-06T23:24:06.927Z,17.33
2023-03-06T23:26:37.102Z,17.70
2023-03-06T23:29:04.339Z,15.33
2023-03-06T23:31:32.202Z,17.63
2023-03-06T23:34:01.046Z,19.20
2023-03-06T23:36:28.480Z,17.10
2023-03-06T23:38:55.633Z,17.97
2023-03-06T23:41:22.836Z,19.93
2023-03-06T23:43:50.506Z,18.33
2023-03-06T23:46:17.782Z,20.40
2023-03-06T23:48:44.975Z,18.03
2023-03-06T23:51:19.769Z,19.10
2023-03-06T23:53:47.517Z,21.17
2023-03-06T23:56:14.503Z,21.57
2023-03-06T23:58:41.381Z,19.00
